Fehn Calais — V2CI3 — position and weather

sailwx.info

Track history (hours):
 
Tides and Currents Weather Stations Pressure Air Temp Water Temp Dewpoint Dewpoint Depression Visibility Wind Speed Wind Dir Waves Ship Positions

Fehn Calais

Last reported at 2015-Jan-29 00:19 UTC. Time now 2015-Jan-30 21:35 UTC.
Position N 39°11' W 009°50'.

Length 82 m; draft 4.2 m.

Type: Cargo ship. MMSI: 305009000.

Date/timePositionNaut miles runAvg speedWind from/ knotsBaromVisibWave heightAir tempDewpointWater temp
2015-Jan-29 00:19N 39°11' W 009°50'14 7.2
2015-Jan-28 22:24N 38°57' W 009°52'12 6.7
2015-Jan-28 20:33N 38°45' W 009°51'6 6.2
2015-Jan-28 19:33N 38°39' W 009°49'6 6.0
2015-Jan-28 18:33N 38°33' W 009°47'5 5.5
2015-Jan-28 17:33N 38°28' W 009°46'5 5.3
2015-Jan-28 16:33N 38°22' W 009°44'5 5.0
2015-Jan-28 15:28N 38°17' W 009°42'15 4.9
2015-Jan-28 12:31N 38°03' W 009°38'5 5.3
2015-Jan-28 11:33N 37°58' W 009°36'5 5.3
2015-Jan-28 10:32N 37°53' W 009°34'5 5.5
2015-Jan-28 09:33N 37°48' W 009°33'6 5.8
2015-Jan-28 08:30N 37°42' W 009°32'83 5.5
2015-Jan-27 17:30N 36°35' W 008°30'153 7.7
2015-Jan-26 21:33N 36°02' W 005°24'9 0.3
2015-Jan-25 15:31N 36°11' W 005°25'5 4.4
2015-Jan-25 14:26N 36°06' W 005°23'7 7.8
2015-Jan-25 13:33N 36°06' W 005°14'  
2015-Jan-21 22:06N 38°44' E 008°36'5 8.1
2015-Jan-21 21:32N 38°45' E 008°41'8 7.8
2015-Jan-21 20:33N 38°47' E 008°51'8 7.7
2015-Jan-21 19:33N 38°49' E 009°00'8 7.6
2015-Jan-21 18:33N 38°51' E 009°10'8 7.8
2015-Jan-21 17:33N 38°54' E 009°19'26 7.4
2015-Jan-21 14:03N 39°06' E 009°49'216 6.4
2015-Jan-20 04:14N 41°13' E 013°38'0 0.0
2015-Jan-20 00:14N 41°13' E 013°38'0 0.0
2015-Jan-19 18:08N 41°13' E 013°38'0 0.0
2015-Jan-19 01:26N 41°13' E 013°38'  
Track history (hours):
 
Tides and Currents Weather Stations Pressure Air Temp Water Temp Dewpoint Dewpoint Depression Visibility Wind Speed Wind Dir Waves Ship Positions

Fehn Calais

Last reported at 2015-Jan-29 00:19 UTC. Time now 2015-Jan-30 21:35 UTC.
Position N 39°11' W 009°50'.

Length 82 m; draft 4.2 m.

Type: Cargo ship. MMSI: 305009000.

Date/timePositionNaut miles runAvg speedWind from/ knotsBaromVisibWave heightAir tempDewpointWater temp
2015-Jan-29 00:19N 39°11' W 009°50'14 7.2
2015-Jan-28 22:24N 38°57' W 009°52'12 6.7
2015-Jan-28 20:33N 38°45' W 009°51'6 6.2
2015-Jan-28 19:33N 38°39' W 009°49'6 6.0
2015-Jan-28 18:33N 38°33' W 009°47'5 5.5
2015-Jan-28 17:33N 38°28' W 009°46'5 5.3
2015-Jan-28 16:33N 38°22' W 009°44'5 5.0
2015-Jan-28 15:28N 38°17' W 009°42'15 4.9
2015-Jan-28 12:31N 38°03' W 009°38'5 5.3
2015-Jan-28 11:33N 37°58' W 009°36'5 5.3
2015-Jan-28 10:32N 37°53' W 009°34'5 5.5
2015-Jan-28 09:33N 37°48' W 009°33'6 5.8
2015-Jan-28 08:30N 37°42' W 009°32'83 5.5
2015-Jan-27 17:30N 36°35' W 008°30'153 7.7
2015-Jan-26 21:33N 36°02' W 005°24'9 0.3
2015-Jan-25 15:31N 36°11' W 005°25'5 4.4
2015-Jan-25 14:26N 36°06' W 005°23'7 7.8
2015-Jan-25 13:33N 36°06' W 005°14'  
2015-Jan-21 22:06N 38°44' E 008°36'5 8.1
2015-Jan-21 21:32N 38°45' E 008°41'8 7.8
2015-Jan-21 20:33N 38°47' E 008°51'8 7.7
2015-Jan-21 19:33N 38°49' E 009°00'8 7.6
2015-Jan-21 18:33N 38°51' E 009°10'8 7.8
2015-Jan-21 17:33N 38°54' E 009°19'26 7.4
2015-Jan-21 14:03N 39°06' E 009°49'216 6.4
2015-Jan-20 04:14N 41°13' E 013°38'0 0.0
2015-Jan-20 00:14N 41°13' E 013°38'0 0.0
2015-Jan-19 18:08N 41°13' E 013°38'0 0.0
2015-Jan-19 01:26N 41°13' E 013°38'  

Dump ship's entire track history